sensor_id;sensor_type;location;lat;lon;timestamp;pressure;altitude;pressure_sealevel;temperature;humidity
3464;BME280;3551;41.578;24.706;2023-09-19T00:01:40;91689.44;;;12.90;93.19
3464;BME280;3551;41.578;24.706;2023-09-19T00:04:09;91673.44;;;12.76;93.33
3464;BME280;3551;41.578;24.706;2023-09-19T00:06:38;91688.03;;;12.72;93.95
3464;BME280;3551;41.578;24.706;2023-09-19T00:09:05;91682.69;;;12.65;94.55
3464;BME280;3551;41.578;24.706;2023-09-19T00:11:36;91681.53;;;12.69;94.08
3464;BME280;3551;41.578;24.706;2023-09-19T00:14:03;91674.28;;;12.63;94.37
3464;BME280;3551;41.578;24.706;2023-09-19T00:16:33;91675.81;;;12.64;94.33
3464;BME280;3551;41.578;24.706;2023-09-19T00:19:01;91674.00;;;12.43;96.16
3464;BME280;3551;41.578;24.706;2023-09-19T00:21:35;91666.66;;;12.51;95.03
3464;BME280;3551;41.578;24.706;2023-09-19T00:24:03;91647.63;;;12.31;95.42
3464;BME280;3551;41.578;24.706;2023-09-19T00:26:31;91668.63;;;12.43;96.09
3464;BME280;3551;41.578;24.706;2023-09-19T00:28:59;91673.59;;;12.41;96.43
3464;BME280;3551;41.578;24.706;2023-09-19T00:31:31;91671.63;;;12.52;95.76
3464;BME280;3551;41.578;24.706;2023-09-19T00:33:58;91666.31;;;12.45;96.20
3464;BME280;3551;41.578;24.706;2023-09-19T00:36:29;91664.00;;;12.43;96.33
3464;BME280;3551;41.578;24.706;2023-09-19T00:38:57;91664.00;;;12.47;96.07
3464;BME280;3551;41.578;24.706;2023-09-19T00:41:24;91662.41;;;12.64;94.70
3464;BME280;3551;41.578;24.706;2023-09-19T00:43:52;91663.28;;;12.43;95.96
3464;BME280;3551;41.578;24.706;2023-09-19T00:46:19;91653.00;;;12.27;96.18
3464;BME280;3551;41.578;24.706;2023-09-19T00:48:46;91642.63;;;12.26;96.29
3464;BME280;3551;41.578;24.706;2023-09-19T00:51:13;91657.22;;;12.28;96.46
3464;BME280;3551;41.578;24.706;2023-09-19T00:53:44;91657.56;;;12.30;96.36
3464;BME280;3551;41.578;24.706;2023-09-19T00:56:13;91655.31;;;12.18;96.93
3464;BME280;3551;41.578;24.706;2023-09-19T00:58:44;91652.63;;;12.18;97.25
3464;BME280;3551;41.578;24.706;2023-09-19T01:01:12;91667.25;;;12.03;98.40
3464;BME280;3551;41.578;24.706;2023-09-19T01:03:40;91638.97;;;11.84;98.00
3464;BME280;3551;41.578;24.706;2023-09-19T01:06:07;91668.00;;;11.97;99.17
3464;BME280;3551;41.578;24.706;2023-09-19T01:08:34;91657.75;;;11.84;99.77
3464;BME280;3551;41.578;24.706;2023-09-19T01:11:09;91657.28;;;12.11;98.83
3464;BME280;3551;41.578;24.706;2023-09-19T01:13:48;91650.44;;;11.92;99.16
3464;BME280;3551;41.578;24.706;2023-09-19T01:16:27;91683.63;;;12.26;97.31
3464;BME280;3551;41.578;24.706;2023-09-19T01:19:05;91664.09;;;12.26;96.61
3464;BME280;3551;41.578;24.706;2023-09-19T01:21:39;91674.91;;;12.08;96.38
3464;BME280;3551;41.578;24.706;2023-09-19T01:24:29;91650.72;;;12.22;96.47
3464;BME280;3551;41.578;24.706;2023-09-19T01:27:17;91658.78;;;12.12;97.14
3464;BME280;3551;41.578;24.706;2023-09-19T01:29:51;91627.06;;;11.96;97.74
3464;BME280;3551;41.578;24.706;2023-09-19T01:32:21;91649.66;;;12.02;99.18
3464;BME280;3551;41.578;24.706;2023-09-19T01:34:52;91653.41;;;12.12;98.33
3464;BME280;3551;41.578;24.706;2023-09-19T01:37:22;91655.66;;;12.27;97.49
3464;BME280;3551;41.578;24.706;2023-09-19T01:39:53;91646.19;;;12.02;98.56
3464;BME280;3551;41.578;24.706;2023-09-19T01:42:29;91634.75;;;11.83;97.30
3464;BME280;3551;41.578;24.706;2023-09-19T01:45:03;91635.84;;;11.97;97.42
3464;BME280;3551;41.578;24.706;2023-09-19T01:47:38;91642.38;;;11.99;97.55
3464;BME280;3551;41.578;24.706;2023-09-19T01:50:15;91648.47;;;12.10;97.46
3464;BME280;3551;41.578;24.706;2023-09-19T01:52:48;91653.06;;;12.10;96.83
3464;BME280;3551;41.578;24.706;2023-09-19T01:55:18;91637.44;;;11.91;97.77
3464;BME280;3551;41.578;24.706;2023-09-19T01:57:54;91636.66;;;11.87;97.53
3464;BME280;3551;41.578;24.706;2023-09-19T02:00:26;91635.91;;;11.82;96.93
3464;BME280;3551;41.578;24.706;2023-09-19T02:02:58;91637.44;;;11.87;96.72
3464;BME280;3551;41.578;24.706;2023-09-19T02:05:26;91628.28;;;11.70;97.93
3464;BME280;3551;41.578;24.706;2023-09-19T02:07:53;91634.34;;;11.89;97.33
3464;BME280;3551;41.578;24.706;2023-09-19T02:10:21;91633.22;;;11.86;96.89
3464;BME280;3551;41.578;24.706;2023-09-19T02:12:49;91628.25;;;11.81;97.00
3464;BME280;3551;41.578;24.706;2023-09-19T02:15:16;91631.31;;;11.79;96.79
3464;BME280;3551;41.578;24.706;2023-09-19T02:17:43;91631.72;;;11.67;98.29
3464;BME280;3551;41.578;24.706;2023-09-19T02:20:13;91616.03;;;11.66;97.92
3464;BME280;3551;41.578;24.706;2023-09-19T02:22:41;91625.22;;;11.61;98.39
3464;BME280;3551;41.578;24.706;2023-09-19T02:25:08;91595.81;;;11.33;97.89
3464;BME280;3551;41.578;24.706;2023-09-19T02:27:35;91629.09;;;11.32;99.36
3464;BME280;3551;41.578;24.706;2023-09-19T02:30:03;91622.16;;;11.63;98.72
3464;BME280;3551;41.578;24.706;2023-09-19T02:32:31;91627.16;;;11.57;98.55
3464;BME280;3551;41.578;24.706;2023-09-19T02:35:02;91627.91;;;11.51;99.09
3464;BME280;3551;41.578;24.706;2023-09-19T02:37:31;91617.19;;;11.54;98.60
3464;BME280;3551;41.578;24.706;2023-09-19T02:40:00;91617.97;;;11.58;98.24
3464;BME280;3551;41.578;24.706;2023-09-19T02:42:27;91584.38;;;11.29;98.64
3464;BME280;3551;41.578;24.706;2023-09-19T02:44:55;91611.44;;;11.59;97.58
3464;BME280;3551;41.578;24.706;2023-09-19T02:47:22;91615.66;;;11.53;98.51
3464;BME280;3551;41.578;24.706;2023-09-19T02:49:49;91614.16;;;11.52;97.42
3464;BME280;3551;41.578;24.706;2023-09-19T02:52:16;91618.34;;;11.53;97.68
3464;BME280;3551;41.578;24.706;2023-09-19T02:54:45;91611.09;;;11.47;98.26
3464;BME280;3551;41.578;24.706;2023-09-19T02:57:12;91600.41;;;11.36;100.00
3464;BME280;3551;41.578;24.706;2023-09-19T02:59:42;91600.72;;;11.63;98.45
3464;BME280;3551;41.578;24.706;2023-09-19T03:02:09;91590.06;;;11.52;96.05
3464;BME280;3551;41.578;24.706;2023-09-19T03:04:36;91604.56;;;11.72;96.49
3464;BME280;3551;41.578;24.706;2023-09-19T03:07:03;91600.72;;;11.66;95.64
3464;BME280;3551;41.578;24.706;2023-09-19T03:09:31;91607.66;;;11.43;97.17
3464;BME280;3551;41.578;24.706;2023-09-19T03:11:59;91606.91;;;11.28;98.20
3464;BME280;3551;41.578;24.706;2023-09-19T03:14:26;91602.69;;;11.45;97.26
3464;BME280;3551;41.578;24.706;2023-09-19T03:16:55;91606.88;;;11.53;97.03
3464;BME280;3551;41.578;24.706;2023-09-19T03:19:22;91610.75;;;11.34;99.42
3464;BME280;3551;41.578;24.706;2023-09-19T03:21:51;91606.88;;;11.49;97.27
3464;BME280;3551;41.578;24.706;2023-09-19T03:24:19;91619.13;;;11.40;97.26
3464;BME280;3551;41.578;24.706;2023-09-19T03:26:46;91608.81;;;11.42;95.90
3464;BME280;3551;41.578;24.706;2023-09-19T03:29:14;91617.63;;;11.24;98.05
3464;BME280;3551;41.578;24.706;2023-09-19T03:31:42;91566.81;;;10.96;98.02
3464;BME280;3551;41.578;24.706;2023-09-19T03:34:09;91580.19;;;11.00;98.07
3464;BME280;3551;41.578;24.706;2023-09-19T03:36:36;91613.44;;;11.23;99.11
3464;BME280;3551;41.578;24.706;2023-09-19T03:39:03;91612.69;;;11.09;98.40
3464;BME280;3551;41.578;24.706;2023-09-19T03:41:30;91571.78;;;10.80;98.59
3464;BME280;3551;41.578;24.706;2023-09-19T03:43:58;91618.38;;;11.18;97.91
3464;BME280;3551;41.578;24.706;2023-09-19T03:46:27;91623.38;;;10.88;99.67
3464;BME280;3551;41.578;24.706;2023-09-19T03:48:54;91628.34;;;11.03;99.05
3464;BME280;3551;41.578;24.706;2023-09-19T03:51:21;91610.38;;;10.93;99.22
3464;BME280;3551;41.578;24.706;2023-09-19T03:53:48;91611.53;;;10.78;100.00
3464;BME280;3551;41.578;24.706;2023-09-19T03:56:15;91623.38;;;11.05;99.28
3464;BME280;3551;41.578;24.706;2023-09-19T03:58:42;91623.78;;;11.14;98.30
3464;BME280;3551;41.578;24.706;2023-09-19T04:01:10;91632.91;;;11.24;97.63
3464;BME280;3551;41.578;24.706;2023-09-19T04:03:40;91606.56;;;10.94;98.38
3464;BME280;3551;41.578;24.706;2023-09-19T04:06:13;91641.72;;;11.21;97.81
3464;BME280;3551;41.578;24.706;2023-09-19T04:08:40;91623.75;;;11.18;97.45
3464;BME280;3551;41.578;24.706;2023-09-19T04:11:07;91600.84;;;10.85;98.38
3464;BME280;3551;41.578;24.706;2023-09-19T04:13:34;91632.16;;;11.09;98.02
3464;BME280;3551;41.578;24.706;2023-09-19T04:16:01;91637.16;;;11.14;98.00
3464;BME280;3551;41.578;24.706;2023-09-19T04:18:29;91634.47;;;10.90;100.00
3464;BME280;3551;41.578;24.706;2023-09-19T04:21:00;91632.94;;;11.13;98.79
3464;BME280;3551;41.578;24.706;2023-09-19T04:23:29;91651.28;;;11.29;97.51
3464;BME280;3551;41.578;24.706;2023-09-19T04:25:56;91646.31;;;11.20;97.63
3464;BME280;3551;41.578;24.706;2023-09-19T04:28:23;91645.56;;;11.20;97.68
3464;BME280;3551;41.578;24.706;2023-09-19T04:30:50;91646.69;;;11.15;97.98
3464;BME280;3551;41.578;24.706;2023-09-19T04:33:17;91645.56;;;11.20;97.45
3464;BME280;3551;41.578;24.706;2023-09-19T04:35:44;91647.09;;;11.17;97.68
3464;BME280;3551;41.578;24.706;2023-09-19T04:38:13;91643.25;;;11.04;98.21
3464;BME280;3551;41.578;24.706;2023-09-19T04:40:41;91639.06;;;10.93;97.92
3464;BME280;3551;41.578;24.706;2023-09-19T04:43:08;91656.25;;;11.30;97.29
3464;BME280;3551;41.578;24.706;2023-09-19T04:45:35;91619.56;;;11.10;97.43
3464;BME280;3551;41.578;24.706;2023-09-19T04:48:02;91655.84;;;11.39;99.57
3464;BME280;3551;41.578;24.706;2023-09-19T04:50:29;91659.13;;;12.28;92.75
3464;BME280;3551;41.578;24.706;2023-09-19T04:52:56;91654.13;;;13.54;85.79
3464;BME280;3551;41.578;24.706;2023-09-19T04:55:25;91660.63;;;14.65;78.03
3464;BME280;3551;41.578;24.706;2023-09-19T04:58:19;91660.88;;;15.77;72.05
3464;BME280;3551;41.578;24.706;2023-09-19T05:00:46;91656.09;;;16.28;68.01
3464;BME280;3551;41.578;24.706;2023-09-19T05:03:13;91639.03;;;16.54;66.28
3464;BME280;3551;41.578;24.706;2023-09-19T05:05:40;91662.66;;;16.47;64.82
3464;BME280;3551;41.578;24.706;2023-09-19T05:08:08;91667.03;;;16.21;65.98
3464;BME280;3551;41.578;24.706;2023-09-19T05:10:36;91662.84;;;16.59;65.08
3464;BME280;3551;41.578;24.706;2023-09-19T05:13:05;91651.25;;;16.19;65.35
3464;BME280;3551;41.578;24.706;2023-09-19T05:15:33;91666.47;;;16.29;66.00
3464;BME280;3551;41.578;24.706;2023-09-19T05:18:01;91652.91;;;16.33;65.41
3464;BME280;3551;41.578;24.706;2023-09-19T05:20:28;91666.09;;;16.70;63.95
3464;BME280;3551;41.578;24.706;2023-09-19T05:22:59;91662.25;;;17.23;63.67
3464;BME280;3551;41.578;24.706;2023-09-19T05:25:28;91662.53;;;17.45;62.34
3464;BME280;3551;41.578;24.706;2023-09-19T05:27:58;91642.25;;;17.53;61.26
3464;BME280;3551;41.578;24.706;2023-09-19T05:30:26;91648.91;;;17.97;61.16
3464;BME280;3551;41.578;24.706;2023-09-19T05:32:54;91654.69;;;18.28;59.89
3464;BME280;3551;41.578;24.706;2023-09-19T05:35:21;91648.28;;;17.77;62.31
3464;BME280;3551;41.578;24.706;2023-09-19T05:37:50;91646.13;;;17.84;62.13
3464;BME280;3551;41.578;24.706;2023-09-19T05:40:17;91661.34;;;17.94;62.07
3464;BME280;3551;41.578;24.706;2023-09-19T05:42:46;91634.06;;;17.73;61.33
3464;BME280;3551;41.578;24.706;2023-09-19T05:45:15;91628.84;;;17.66;61.00
3464;BME280;3551;41.578;24.706;2023-09-19T05:47:47;91642.22;;;18.02;60.60
3464;BME280;3551;41.578;24.706;2023-09-19T05:50:15;91651.81;;;17.58;64.48
3464;BME280;3551;41.578;24.706;2023-09-19T05:52:47;91612.41;;;17.73;61.92
3464;BME280;3551;41.578;24.706;2023-09-19T05:55:17;91620.56;;;18.02;62.56
3464;BME280;3551;41.578;24.706;2023-09-19T05:57:49;91655.34;;;18.32;62.93
3464;BME280;3551;41.578;24.706;2023-09-19T06:00:18;91641.13;;;18.28;62.46
3464;BME280;3551;41.578;24.706;2023-09-19T06:02:51;91641.44;;;18.87;60.82
3464;BME280;3551;41.578;24.706;2023-09-19T06:05:19;91641.50;;;18.71;58.80
3464;BME280;3551;41.578;24.706;2023-09-19T06:07:46;91630.88;;;18.64;59.22
3464;BME280;3551;41.578;24.706;2023-09-19T06:10:14;91657.84;;;18.55;58.92
3464;BME280;3551;41.578;24.706;2023-09-19T06:12:42;91652.81;;;18.25;59.57
3464;BME280;3551;41.578;24.706;2023-09-19T06:15:11;91653.91;;;18.27;58.88
3464;BME280;3551;41.578;24.706;2023-09-19T06:17:42;91645.00;;;18.43;59.51
3464;BME280;3551;41.578;24.706;2023-09-19T06:20:10;91656.53;;;19.01;58.63
3464;BME280;3551;41.578;24.706;2023-09-19T06:22:41;91651.78;;;19.18;58.00
3464;BME280;3551;41.578;24.706;2023-09-19T06:25:08;91659.16;;;19.04;59.20
3464;BME280;3551;41.578;24.706;2023-09-19T06:27:38;91654.84;;;19.45;57.92
3464;BME280;3551;41.578;24.706;2023-09-19T06:30:08;91655.94;;;19.60;56.62
3464;BME280;3551;41.578;24.706;2023-09-19T06:32:36;91661.25;;;19.63;54.65
3464;BME280;3551;41.578;24.706;2023-09-19T06:35:06;91663.94;;;19.38;55.50
3464;BME280;3551;41.578;24.706;2023-09-19T06:37:36;91659.38;;;19.35;57.90
3464;BME280;3551;41.578;24.706;2023-09-19T06:40:06;91661.56;;;19.53;56.35
3464;BME280;3551;41.578;24.706;2023-09-19T06:42:34;91639.78;;;19.44;56.08
3464;BME280;3551;41.578;24.706;2023-09-19T06:45:04;91659.28;;;19.39;57.09
3464;BME280;3551;41.578;24.706;2023-09-19T06:47:31;91654.03;;;19.06;59.20
3464;BME280;3551;41.578;24.706;2023-09-19T06:49:58;91634.31;;;18.52;60.52
3464;BME280;3551;41.578;24.706;2023-09-19T06:52:29;91652.06;;;18.82;59.90
3464;BME280;3551;41.578;24.706;2023-09-19T06:54:57;91648.41;;;18.88;60.14
3464;BME280;3551;41.578;24.706;2023-09-19T06:57:24;91650.50;;;18.68;61.00
3464;BME280;3551;41.578;24.706;2023-09-19T06:59:51;91614.88;;;18.41;62.03
3464;BME280;3551;41.578;24.706;2023-09-19T07:02:18;91624.00;;;18.47;62.56
3464;BME280;3551;41.578;24.706;2023-09-19T07:04:52;91631.50;;;18.27;63.76
3464;BME280;3551;41.578;24.706;2023-09-19T07:07:22;91633.78;;;18.57;63.18
3464;BME280;3551;41.578;24.706;2023-09-19T07:09:51;91652.56;;;18.48;64.50
3464;BME280;3551;41.578;24.706;2023-09-19T07:12:19;91637.94;;;18.62;63.88
3464;BME280;3551;41.578;24.706;2023-09-19T07:14:47;91635.00;;;18.69;64.05
3464;BME280;3551;41.578;24.706;2023-09-19T07:17:14;91614.31;;;18.62;62.64
3464;BME280;3551;41.578;24.706;2023-09-19T07:19:43;91609.41;;;18.57;62.44
3464;BME280;3551;41.578;24.706;2023-09-19T07:22:13;91619.19;;;18.67;62.67
3464;BME280;3551;41.578;24.706;2023-09-19T07:24:50;91600.56;;;18.69;63.32
3464;BME280;3551;41.578;24.706;2023-09-19T07:27:22;91635.41;;;19.08;62.49
3464;BME280;3551;41.578;24.706;2023-09-19T07:29:49;91620.66;;;19.09;62.99
3464;BME280;3551;41.578;24.706;2023-09-19T07:32:19;91612.41;;;19.00;62.73
3464;BME280;3551;41.578;24.706;2023-09-19T07:34:45;91641.06;;;19.14;63.00
3464;BME280;3551;41.578;24.706;2023-09-19T07:37:12;91607.19;;;19.19;63.21
3464;BME280;3551;41.578;24.706;2023-09-19T07:39:41;91606.22;;;19.25;61.38
3464;BME280;3551;41.578;24.706;2023-09-19T07:42:11;91618.94;;;19.28;61.48
3464;BME280;3551;41.578;24.706;2023-09-19T07:44:43;91606.75;;;19.33;62.03
3464;BME280;3551;41.578;24.706;2023-09-19T07:47:16;91614.47;;;19.34;61.78
3464;BME280;3551;41.578;24.706;2023-09-19T07:49:43;91622.41;;;19.29;61.92
3464;BME280;3551;41.578;24.706;2023-09-19T07:52:13;91586.28;;;19.32;60.63
3464;BME280;3551;41.578;24.706;2023-09-19T07:54:41;91603.09;;;19.39;60.36
3464;BME280;3551;41.578;24.706;2023-09-19T07:57:09;91599.41;;;19.46;60.61
3464;BME280;3551;41.578;24.706;2023-09-19T07:59:38;91600.59;;;19.57;60.24
3464;BME280;3551;41.578;24.706;2023-09-19T08:02:07;91598.63;;;19.58;59.44
3464;BME280;3551;41.578;24.706;2023-09-19T08:04:41;91599.06;;;19.56;59.81
3464;BME280;3551;41.578;24.706;2023-09-19T08:07:08;91596.91;;;19.64;59.33
3464;BME280;3551;41.578;24.706;2023-09-19T08:09:35;91605.00;;;19.77;60.14
3464;BME280;3551;41.578;24.706;2023-09-19T08:12:04;91593.38;;;19.76;60.77
3464;BME280;3551;41.578;24.706;2023-09-19T08:14:33;91598.00;;;19.88;59.84
3464;BME280;3551;41.578;24.706;2023-09-19T08:17:02;91573.59;;;19.88;59.70
3464;BME280;3551;41.578;24.706;2023-09-19T08:19:31;91595.66;;;20.12;59.71
3464;BME280;3551;41.578;24.706;2023-09-19T08:21:58;91603.22;;;20.17;57.63
3464;BME280;3551;41.578;24.706;2023-09-19T08:24:25;91572.56;;;20.29;58.05
3464;BME280;3551;41.578;24.706;2023-09-19T08:26:54;91580.75;;;20.51;59.13
3464;BME280;3551;41.578;24.706;2023-09-19T08:29:21;91586.41;;;20.44;57.22
3464;BME280;3551;41.578;24.706;2023-09-19T08:31:53;91582.69;;;20.50;58.08
3464;BME280;3551;41.578;24.706;2023-09-19T08:34:23;91579.78;;;20.66;58.51
3464;BME280;3551;41.578;24.706;2023-09-19T08:36:50;91603.97;;;20.30;56.69
3464;BME280;3551;41.578;24.706;2023-09-19T08:39:18;91572.66;;;20.38;56.81
3464;BME280;3551;41.578;24.706;2023-09-19T08:41:45;91587.69;;;20.52;57.42
3464;BME280;3551;41.578;24.706;2023-09-19T08:44:12;91566.16;;;20.57;57.06
3464;BME280;3551;41.578;24.706;2023-09-19T08:46:41;91570.81;;;20.57;55.90
3464;BME280;3551;41.578;24.706;2023-09-19T08:49:15;91574.72;;;20.77;56.75
3464;BME280;3551;41.578;24.706;2023-09-19T08:51:54;91564.69;;;20.65;54.04
3464;BME280;3551;41.578;24.706;2023-09-19T08:54:25;91572.47;;;20.85;56.03
3464;BME280;3551;41.578;24.706;2023-09-19T08:56:56;91571.53;;;20.79;53.62
3464;BME280;3551;41.578;24.706;2023-09-19T08:59:28;91566.31;;;20.94;55.57
3464;BME280;3551;41.578;24.706;2023-09-19T09:01:56;91567.44;;;21.05;56.18
3464;BME280;3551;41.578;24.706;2023-09-19T09:04:24;91553.84;;;21.05;53.84
3464;BME280;3551;41.578;24.706;2023-09-19T09:06:53;91546.94;;;21.13;54.96
3464;BME280;3551;41.578;24.706;2023-09-19T09:09:21;91552.28;;;21.26;54.81
3464;BME280;3551;41.578;24.706;2023-09-19T09:11:51;91556.09;;;20.98;53.36
3464;BME280;3551;41.578;24.706;2023-09-19T09:14:26;91548.91;;;20.82;53.60
3464;BME280;3551;41.578;24.706;2023-09-19T09:16:53;91523.06;;;21.08;54.32
3464;BME280;3551;41.578;24.706;2023-09-19T09:19:22;91542.13;;;21.17;52.95
3464;BME280;3551;41.578;24.706;2023-09-19T09:21:50;91520.53;;;21.23;53.76
3464;BME280;3551;41.578;24.706;2023-09-19T09:24:27;91534.28;;;21.19;52.99
3464;BME280;3551;41.578;24.706;2023-09-19T09:26:55;91535.69;;;21.02;53.46
3464;BME280;3551;41.578;24.706;2023-09-19T09:29:41;91538.38;;;20.93;51.64
3464;BME280;3551;41.578;24.706;2023-09-19T09:32:22;91527.94;;;21.22;53.02
3464;BME280;3551;41.578;24.706;2023-09-19T09:34:52;91508.34;;;21.46;52.62
3464;BME280;3551;41.578;24.706;2023-09-19T09:37:19;91523.94;;;21.54;53.75
3464;BME280;3551;41.578;24.706;2023-09-19T09:39:53;91519.56;;;21.66;51.61
3464;BME280;3551;41.578;24.706;2023-09-19T09:42:32;91523.31;;;21.50;51.06
3464;BME280;3551;41.578;24.706;2023-09-19T09:45:17;91509.28;;;21.61;50.91
3464;BME280;3551;41.578;24.706;2023-09-19T09:47:46;91509.00;;;21.77;50.66
3464;BME280;3551;41.578;24.706;2023-09-19T09:50:29;91506.16;;;21.99;51.37
3464;BME280;3551;41.578;24.706;2023-09-19T09:53:19;91489.22;;;21.95;50.61
3464;BME280;3551;41.578;24.706;2023-09-19T09:56:03;91499.94;;;22.16;51.32
3464;BME280;3551;41.578;24.706;2023-09-19T09:58:32;91502.22;;;22.09;50.20
3464;BME280;3551;41.578;24.706;2023-09-19T10:01:01;91498.44;;;21.97;49.12
3464;BME280;3551;41.578;24.706;2023-09-19T10:03:35;91491.78;;;22.07;49.41
3464;BME280;3551;41.578;24.706;2023-09-19T10:06:06;91500.97;;;22.28;50.00
3464;BME280;3551;41.578;24.706;2023-09-19T10:09:04;91490.56;;;22.26;49.50
3464;BME280;3551;41.578;24.706;2023-09-19T10:11:41;91496.28;;;22.37;50.55
3464;BME280;3551;41.578;24.706;2023-09-19T10:14:11;91490.34;;;22.48;50.37
3464;BME280;3551;41.578;24.706;2023-09-19T10:16:45;91496.91;;;22.23;48.55
3464;BME280;3551;41.578;24.706;2023-09-19T10:19:16;91490.22;;;22.42;48.73
3464;BME280;3551;41.578;24.706;2023-09-19T10:21:49;91490.47;;;22.54;48.61
3464;BME280;3551;41.578;24.706;2023-09-19T10:24:17;91481.59;;;22.44;48.09
3464;BME280;3551;41.578;24.706;2023-09-19T10:26:47;91479.78;;;22.41;48.08
3464;BME280;3551;41.578;24.706;2023-09-19T10:29:17;91476.25;;;22.59;47.47
3464;BME280;3551;41.578;24.706;2023-09-19T10:31:47;91476.34;;;22.82;47.01
3464;BME280;3551;41.578;24.706;2023-09-19T10:34:17;91476.91;;;22.95;46.46
3464;BME280;3551;41.578;24.706;2023-09-19T10:36:45;91469.59;;;23.02;47.25
3464;BME280;3551;41.578;24.706;2023-09-19T10:39:15;91492.63;;;23.01;48.07
3464;BME280;3551;41.578;24.706;2023-09-19T10:41:50;91468.03;;;23.10;47.28
3464;BME280;3551;41.578;24.706;2023-09-19T10:44:24;91464.84;;;23.11;48.25
3464;BME280;3551;41.578;24.706;2023-09-19T10:46:54;91467.94;;;22.95;46.86
3464;BME280;3551;41.578;24.706;2023-09-19T10:49:22;91470.03;;;23.00;47.20
3464;BME280;3551;41.578;24.706;2023-09-19T10:51:54;91462.38;;;22.89;46.11
3464;BME280;3551;41.578;24.706;2023-09-19T10:54:27;91456.03;;;22.83;45.21
3464;BME280;3551;41.578;24.706;2023-09-19T10:56:57;91447.06;;;22.92;44.79
3464;BME280;3551;41.578;24.706;2023-09-19T10:59:25;91432.50;;;22.95;44.65
3464;BME280;3551;41.578;24.706;2023-09-19T11:02:00;91423.38;;;22.98;45.74
3464;BME280;3551;41.578;24.706;2023-09-19T11:04:42;91427.59;;;23.08;46.14
3464;BME280;3551;41.578;24.706;2023-09-19T11:07:14;91426.63;;;22.87;46.67
3464;BME280;3551;41.578;24.706;2023-09-19T11:09:45;91431.25;;;23.05;46.63
3464;BME280;3551;41.578;24.706;2023-09-19T11:12:49;91418.56;;;22.93;46.15
3464;BME280;3551;41.578;24.706;2023-09-19T11:18:51;91422.75;;;23.27;47.30
3464;BME280;3551;41.578;24.706;2023-09-19T11:21:52;91424.72;;;23.26;46.16
3464;BME280;3551;41.578;24.706;2023-09-19T11:24:31;91414.50;;;23.12;44.10
3464;BME280;3551;41.578;24.706;2023-09-19T11:27:18;91389.19;;;23.12;45.23
3464;BME280;3551;41.578;24.706;2023-09-19T11:29:45;91425.13;;;23.43;45.94
3464;BME280;3551;41.578;24.706;2023-09-19T11:32:14;91414.97;;;23.43;45.58
3464;BME280;3551;41.578;24.706;2023-09-19T11:34:47;91423.53;;;23.51;45.90
3464;BME280;3551;41.578;24.706;2023-09-19T11:40:45;91409.97;;;23.42;46.28
3464;BME280;3551;41.578;24.706;2023-09-19T11:43:31;91406.34;;;23.36;46.14
3464;BME280;3551;41.578;24.706;2023-09-19T11:46:09;91415.13;;;23.40;46.11
3464;BME280;3551;41.578;24.706;2023-09-19T11:48:38;91405.25;;;23.42;46.68
3464;BME280;3551;41.578;24.706;2023-09-19T11:51:17;91403.41;;;23.48;45.82
3464;BME280;3551;41.578;24.706;2023-09-19T11:54:10;91400.41;;;23.37;45.90
3464;BME280;3551;41.578;24.706;2023-09-19T11:56:52;91394.50;;;23.15;46.23
3464;BME280;3551;41.578;24.706;2023-09-19T11:59:43;91400.38;;;23.46;46.09
3464;BME280;3551;41.578;24.706;2023-09-19T12:02:17;91382.41;;;23.07;46.61
3464;BME280;3551;41.578;24.706;2023-09-19T12:04:54;91393.66;;;23.24;46.00
3464;BME280;3551;41.578;24.706;2023-09-19T12:07:29;91387.75;;;23.25;46.57
3464;BME280;3551;41.578;24.706;2023-09-19T12:10:03;91380.91;;;23.53;46.66
3464;BME280;3551;41.578;24.706;2023-09-19T12:12:31;91384.50;;;23.36;45.58
3464;BME280;3551;41.578;24.706;2023-09-19T12:15:00;91374.00;;;23.20;46.00
3464;BME280;3551;41.578;24.706;2023-09-19T12:17:35;91372.88;;;23.50;45.74
3464;BME280;3551;41.578;24.706;2023-09-19T12:20:02;91376.59;;;23.62;46.46
3464;BME280;3551;41.578;24.706;2023-09-19T12:22:39;91372.88;;;23.50;47.47
3464;BME280;3551;41.578;24.706;2023-09-19T12:25:06;91358.09;;;23.42;46.47
3464;BME280;3551;41.578;24.706;2023-09-19T12:27:41;91373.72;;;23.41;45.70
3464;BME280;3551;41.578;24.706;2023-09-19T12:30:12;91373.47;;;23.30;46.19
3464;BME280;3551;41.578;24.706;2023-09-19T12:32:40;91367.03;;;23.42;46.41
3464;BME280;3551;41.578;24.706;2023-09-19T12:35:07;91365.25;;;23.39;46.34
3464;BME280;3551;41.578;24.706;2023-09-19T12:37:36;91349.03;;;23.12;46.21
3464;BME280;3551;41.578;24.706;2023-09-19T12:40:05;91371.38;;;23.25;46.01
3464;BME280;3551;41.578;24.706;2023-09-19T12:42:42;91360.25;;;23.14;46.56
3464;BME280;3551;41.578;24.706;2023-09-19T12:45:12;91366.22;;;23.27;47.32
3464;BME280;3551;41.578;24.706;2023-09-19T12:47:41;91357.31;;;23.18;46.72
3464;BME280;3551;41.578;24.706;2023-09-19T12:50:28;91366.81;;;23.31;47.04
3464;BME280;3551;41.578;24.706;2023-09-19T12:52:55;91361.63;;;23.33;47.03
3464;BME280;3551;41.578;24.706;2023-09-19T12:55:27;91365.06;;;23.43;46.48
3464;BME280;3551;41.578;24.706;2023-09-19T12:58:08;91332.78;;;23.18;46.79
3464;BME280;3551;41.578;24.706;2023-09-19T13:00:38;91355.88;;;23.31;46.03
3464;BME280;3551;41.578;24.706;2023-09-19T13:03:15;91356.97;;;23.25;46.23
3464;BME280;3551;41.578;24.706;2023-09-19T13:05:52;91347.66;;;23.17;46.77
3464;BME280;3551;41.578;24.706;2023-09-19T13:08:28;91353.50;;;23.24;46.09
3464;BME280;3551;41.578;24.706;2023-09-19T13:11:04;91344.66;;;23.29;45.23
3464;BME280;3551;41.578;24.706;2023-09-19T13:13:36;91341.16;;;23.14;45.44
3464;BME280;3551;41.578;24.706;2023-09-19T13:16:05;91349.63;;;23.16;45.86
3464;BME280;3551;41.578;24.706;2023-09-19T13:18:46;91345.47;;;23.21;44.48
3464;BME280;3551;41.578;24.706;2023-09-19T13:21:14;91345.78;;;23.23;44.22
3464;BME280;3551;41.578;24.706;2023-09-19T13:23:53;91344.94;;;23.40;44.86
3464;BME280;3551;41.578;24.706;2023-09-19T13:26:22;91346.19;;;23.30;44.07
3464;BME280;3551;41.578;24.706;2023-09-19T13:28:49;91337.69;;;23.52;44.30
3464;BME280;3551;41.578;24.706;2023-09-19T13:31:17;91348.72;;;23.58;43.55
3464;BME280;3551;41.578;24.706;2023-09-19T13:33:48;91355.84;;;23.40;44.31
3464;BME280;3551;41.578;24.706;2023-09-19T13:36:26;91349.34;;;23.14;43.15